Time;durP1;ratioP1;P1;durP2;ratioP2;P2;SDS_P1;SDS_P2;PMS_P1;PMS_P2;Temp;Humidity;BMP_temperature;BMP_pressure;BME280_temperature;BME280_humidity;BME280_pressure;Samples;Min_cycle;Max_cycle;Signal;HPM_P1;HPM_P2
2022/01/09 00:00:26;;;;;;;;;;;;;;;4.90;82.89;94386.59;5114998;28;1033;-47
2022/01/09 00:02:52;;;;;;;;;;;;;;;4.94;83.07;94392.44;5116092;28;1032;-47
2022/01/09 00:05:19;;;;;;;;;;;;;;;5.08;82.49;94378.72;5116218;28;973;-47
2022/01/09 00:07:46;;;;;;;;;;;;;;;5.04;82.71;94375.50;5115819;28;1238;-47
2022/01/09 00:10:12;;;;;;;;;;;;;;;4.96;82.67;94380.72;5115715;28;1905;-47
2022/01/09 00:12:38;;;;;;;;;;;;;;;4.86;83.45;94377.28;5116126;28;1067;-47
2022/01/09 00:15:05;;;;;;;;;;;;;;;4.83;84.30;94369.63;5115747;28;977;-47
2022/01/09 00:17:31;;;;;;;;;;;;;;;4.94;84.19;94379.22;5115836;28;1091;-47
2022/01/09 00:19:57;;;;;;;;;;;;;;;5.05;83.07;94374.53;5115621;28;1032;-48
2022/01/09 00:22:38;;;;;;;;;;;;;;;4.92;83.52;94370.56;5115810;28;1049;-47
2022/01/09 00:25:05;;;;;;;;;;;;;;;4.93;82.99;94377.53;5115600;28;2039;-47
2022/01/09 00:27:31;;;;;;;;;;;;;;;4.79;83.35;94384.97;5115720;28;1147;-47
2022/01/09 00:29:57;;;;;;;;;;;;;;;4.86;83.09;94380.75;5115124;28;1918;-48
2022/01/09 00:32:24;;;;;;;;;;;;;;;4.95;82.55;94384.38;5115629;28;989;-48
2022/01/09 00:34:50;;;;;;;;;;;;;;;4.96;82.40;94377.25;5115597;28;1040;-47
2022/01/09 00:37:16;;;;;;;;;;;;;;;4.98;82.43;94377.94;5115657;28;965;-47
2022/01/09 00:39:42;;;;;;;;;;;;;;;4.97;82.42;94384.19;5114232;28;985;-47
2022/01/09 00:42:08;;;;;;;;;;;;;;;4.85;83.22;94384.38;5115411;28;969;-47
2022/01/09 00:44:34;;;;;;;;;;;;;;;4.82;83.33;94382.03;5115227;28;1081;-48
2022/01/09 00:47:00;;;;;;;;;;;;;;;4.83;83.18;94382.88;5115403;28;1055;-47
2022/01/09 00:49:26;;;;;;;;;;;;;;;4.82;82.44;94371.44;5115118;28;1992;-47
2022/01/09 00:51:52;;;;;;;;;;;;;;;4.77;82.90;94365.75;5115228;28;1005;-48
2022/01/09 00:54:18;;;;;;;;;;;;;;;4.81;82.52;94367.09;5115246;28;1024;-48
2022/01/09 00:56:44;;;;;;;;;;;;;;;4.63;82.77;94364.41;5115448;28;1005;-48
2022/01/09 00:59:10;;;;;;;;;;;;;;;4.59;83.02;94356.88;5114799;28;953;-47
2022/01/09 01:01:37;;;;;;;;;;;;;;;4.68;83.27;94356.00;5113914;28;1008;-47
2022/01/09 01:04:03;;;;;;;;;;;;;;;4.80;83.08;94352.22;5115136;28;1012;-47
2022/01/09 01:06:29;;;;;;;;;;;;;;;4.86;83.07;94346.34;5114695;28;1157;-47
2022/01/09 01:08:56;;;;;;;;;;;;;;;4.96;82.42;94348.94;5114727;28;1989;-47
2022/01/09 01:11:23;;;;;;;;;;;;;;;5.02;82.22;94351.00;5114639;28;976;-47
2022/01/09 01:13:49;;;;;;;;;;;;;;;5.00;82.22;94344.19;5114721;28;1047;-47
2022/01/09 01:16:15;;;;;;;;;;;;;;;5.01;82.27;94340.56;5114962;28;998;-47
2022/01/09 01:18:44;;;;;;;;;;;;;;;5.04;82.61;94332.31;5114710;28;1100;-48
2022/01/09 01:21:10;;;;;;;;;;;;;;;5.09;82.63;94327.41;5114403;28;925;-48
2022/01/09 01:23:37;;;;;;;;;;;;;;;5.17;82.06;94321.34;5114777;28;972;-47
2022/01/09 01:26:03;;;;;;;;;;;;;;;5.01;82.65;94308.78;5114396;28;1035;-48
2022/01/09 01:28:30;;;;;;;;;;;;;;;4.91;82.71;94316.75;5114465;28;1060;-47
2022/01/09 01:30:56;;;;;;;;;;;;;;;4.88;82.59;94312.59;5113936;28;1910;-47
2022/01/09 01:33:22;;;;;;;;;;;;;;;4.99;82.58;94316.84;5114446;28;1099;-48
2022/01/09 01:35:48;;;;;;;;;;;;;;;4.96;82.92;94316.31;5114412;28;1031;-47
2022/01/09 01:38:15;;;;;;;;;;;;;;;5.01;83.22;94312.25;5114413;28;1075;-47
2022/01/09 01:40:41;;;;;;;;;;;;;;;5.02;83.10;94313.91;5114263;28;1069;-48
2022/01/09 01:43:07;;;;;;;;;;;;;;;5.08;82.96;94309.81;5114108;28;1212;-48
2022/01/09 01:45:33;;;;;;;;;;;;;;;5.14;82.58;94298.66;5114425;28;960;-47
2022/01/09 01:48:05;;;;;;;;;;;;;;;5.09;82.91;94290.31;5114177;28;1344;-47
2022/01/09 01:50:36;;;;;;;;;;;;;;;5.05;82.58;94307.47;5114312;28;1981;-47
2022/01/09 01:53:03;;;;;;;;;;;;;;;4.99;83.03;94314.22;5113946;28;1053;-47
2022/01/09 01:55:33;;;;;;;;;;;;;;;4.95;83.63;94304.03;5114110;28;1048;-48
2022/01/09 01:57:59;;;;;;;;;;;;;;;5.06;83.02;94307.31;5114095;28;965;-47
2022/01/09 02:00:25;;;;;;;;;;;;;;;5.04;83.58;94303.16;5114066;28;981;-47
2022/01/09 02:02:51;;;;;;;;;;;;;;;5.05;83.41;94292.41;5113715;28;937;-48
2022/01/09 02:05:17;;;;;;;;;;;;;;;5.06;82.99;94290.59;5113954;28;1905;-47
2022/01/09 02:07:43;;;;;;;;;;;;;;;5.04;82.97;94296.03;5113431;28;1212;-48
2022/01/09 02:10:10;;;;;;;;;;;;;;;5.04;83.30;94287.25;5113783;28;1991;-48
2022/01/09 02:12:40;;;;;;;;;;;;;;;5.01;83.39;94275.16;5113622;28;987;-47
2022/01/09 02:15:25;;;;;;;;;;;;;;;5.06;83.33;94278.16;5113953;28;988;-47
2022/01/09 02:17:51;;;;;;;;;;;;;;;5.05;83.61;94270.41;5113597;28;1012;-47
2022/01/09 02:20:17;;;;;;;;;;;;;;;5.03;83.54;94265.25;5113944;28;1017;-48
2022/01/09 02:22:43;;;;;;;;;;;;;;;5.03;83.43;94254.66;5113540;28;1089;-47
2022/01/09 02:25:10;;;;;;;;;;;;;;;4.92;83.95;94251.38;5113557;28;1096;-47
2022/01/09 02:27:36;;;;;;;;;;;;;;;4.78;83.58;94250.03;5113701;28;1060;-48
2022/01/09 02:30:03;;;;;;;;;;;;;;;4.78;83.64;94245.59;5113539;28;1910;-47
2022/01/09 02:32:29;;;;;;;;;;;;;;;4.82;83.54;94239.03;5113647;28;1056;-48
2022/01/09 02:34:55;;;;;;;;;;;;;;;4.85;83.77;94245.81;5113657;28;1064;-48
2022/01/09 02:37:21;;;;;;;;;;;;;;;4.92;84.13;94252.19;5113502;28;984;-47
2022/01/09 02:39:49;;;;;;;;;;;;;;;4.91;84.64;94247.88;5113455;28;1067;-47
2022/01/09 02:42:24;;;;;;;;;;;;;;;4.92;84.92;94246.91;5113476;28;1112;-48
2022/01/09 02:44:51;;;;;;;;;;;;;;;4.82;85.30;94238.19;5113644;28;1030;-47
2022/01/09 02:47:18;;;;;;;;;;;;;;;4.85;85.59;94237.88;5113446;28;1035;-47
2022/01/09 02:49:48;;;;;;;;;;;;;;;5.00;84.80;94238.22;5113859;28;2002;-48
2022/01/09 02:57:32;;;;;;;;;;;;;;;4.93;85.23;94229.19;5113225;28;1045;-47
2022/01/09 02:59:58;;;;;;;;;;;;;;;4.89;85.06;94223.34;5113219;28;1276;-48
2022/01/09 03:02:24;;;;;;;;;;;;;;;4.86;85.40;94221.84;5113164;28;1052;-47
2022/01/09 03:04:50;;;;;;;;;;;;;;;4.87;85.54;94218.19;5113253;28;980;-48
2022/01/09 03:07:16;;;;;;;;;;;;;;;4.96;84.87;94213.00;5112930;28;1371;-48
2022/01/09 03:09:42;;;;;;;;;;;;;;;4.98;84.54;94213.69;5113271;28;1902;-47
2022/01/09 03:12:11;;;;;;;;;;;;;;;5.00;84.29;94209.88;5113203;28;1074;-48
2022/01/09 03:14:37;;;;;;;;;;;;;;;4.95;84.18;94204.22;5113173;28;1052;-47
2022/01/09 03:17:03;;;;;;;;;;;;;;;4.92;84.29;94207.16;5113250;28;1043;-47
2022/01/09 03:19:29;;;;;;;;;;;;;;;4.80;84.16;94205.69;5112986;28;1064;-47
2022/01/09 03:21:55;;;;;;;;;;;;;;;4.69;84.62;94204.94;5113386;28;1091;-48
2022/01/09 03:24:21;;;;;;;;;;;;;;;4.72;84.70;94198.50;5112963;28;972;-48
2022/01/09 03:26:47;;;;;;;;;;;;;;;4.70;85.01;94203.13;5113097;28;1084;-47
2022/01/09 03:29:13;;;;;;;;;;;;;;;4.73;84.93;94194.88;5112725;28;1910;-48
2022/01/09 03:31:39;;;;;;;;;;;;;;;4.85;85.03;94195.50;5113166;28;974;-48
2022/01/09 03:34:05;;;;;;;;;;;;;;;4.89;84.48;94202.16;5112823;28;1067;-47
2022/01/09 03:36:31;;;;;;;;;;;;;;;4.71;84.89;94202.16;5116295;28;1088;-48
2022/01/09 03:38:57;;;;;;;;;;;;;;;4.67;84.97;94206.09;5116624;28;1037;-47
2022/01/09 03:41:23;;;;;;;;;;;;;;;4.76;85.02;94199.03;5116662;28;1876;-48
2022/01/09 03:43:49;;;;;;;;;;;;;;;4.84;85.07;94199.16;5116553;28;1060;-48
2022/01/09 03:46:15;;;;;;;;;;;;;;;4.92;84.70;94198.41;5116583;28;992;-48
2022/01/09 03:48:41;;;;;;;;;;;;;;;5.01;84.09;94200.16;5116226;28;1115;-48
2022/01/09 03:51:10;;;;;;;;;;;;;;;5.00;84.21;94195.81;5116236;28;1906;-47
2022/01/09 03:53:36;;;;;;;;;;;;;;;5.00;84.41;94196.66;5116443;27;1010;-48
2022/01/09 03:56:02;;;;;;;;;;;;;;;5.01;84.22;94197.50;5116445;28;1052;-47
2022/01/09 03:58:28;;;;;;;;;;;;;;;4.97;84.31;94189.03;5116236;28;1147;-47
2022/01/09 04:00:54;;;;;;;;;;;;;;;4.90;84.53;94190.59;5116004;28;976;-47
2022/01/09 04:03:20;;;;;;;;;;;;;;;4.96;84.50;94186.50;5115788;28;1033;-47
2022/01/09 04:05:46;;;;;;;;;;;;;;;4.85;84.86;94187.56;5116010;28;1199;-48
2022/01/09 04:08:13;;;;;;;;;;;;;;;4.88;85.08;94189.91;5115726;28;1226;-47
2022/01/09 04:10:43;;;;;;;;;;;;;;;4.93;85.03;94184.16;5116112;28;1887;-47
2022/01/09 04:13:12;;;;;;;;;;;;;;;4.98;85.60;94187.19;5115923;28;1052;-48
2022/01/09 04:15:41;;;;;;;;;;;;;;;5.08;84.87;94187.94;5114700;28;1093;-48
2022/01/09 04:18:07;;;;;;;;;;;;;;;5.00;85.39;94190.53;5114600;28;1104;-48
2022/01/09 04:20:33;;;;;;;;;;;;;;;4.98;85.74;94181.91;5115963;28;980;-48
2022/01/09 04:23:00;;;;;;;;;;;;;;;5.02;85.43;94186.72;5115924;28;977;-47
2022/01/09 04:25:26;;;;;;;;;;;;;;;5.03;85.61;94182.28;5115601;28;1880;-47
2022/01/09 04:27:52;;;;;;;;;;;;;;;5.04;85.33;94183.94;5114517;28;1012;-47
2022/01/09 04:30:19;;;;;;;;;;;;;;;5.01;85.54;94187.72;5115252;28;1968;-48
2022/01/09 04:32:45;;;;;;;;;;;;;;;4.93;85.57;94178.84;5115554;27;1033;-48
2022/01/09 04:35:11;;;;;;;;;;;;;;;4.76;85.91;94181.34;5115539;28;985;-48
2022/01/09 04:37:37;;;;;;;;;;;;;;;4.73;86.45;94183.47;5115740;28;1033;-47
2022/01/09 04:40:05;;;;;;;;;;;;;;;4.80;86.38;94189.81;5115337;28;976;-47
2022/01/09 04:42:41;;;;;;;;;;;;;;;4.86;86.17;94187.41;5115523;28;957;-47
2022/01/09 04:45:08;;;;;;;;;;;;;;;4.88;86.34;94187.28;5115005;28;1053;-48
2022/01/09 04:47:35;;;;;;;;;;;;;;;4.88;86.72;94181.97;5115299;28;1067;-48
2022/01/09 04:50:02;;;;;;;;;;;;;;;4.88;87.04;94188.09;5114972;28;1909;-48
2022/01/09 04:52:33;;;;;;;;;;;;;;;5.04;86.12;94181.28;5115389;28;1039;-47
2022/01/09 04:55:00;;;;;;;;;;;;;;;5.07;85.70;94179.16;5115047;28;1055;-48
2022/01/09 04:57:26;;;;;;;;;;;;;;;5.07;85.85;94186.28;5115222;28;1069;-48
2022/01/09 04:59:52;;;;;;;;;;;;;;;4.96;86.60;94186.50;5114579;28;916;-47
2022/01/09 05:02:18;;;;;;;;;;;;;;;4.93;86.93;94187.63;5115295;28;985;-47
2022/01/09 05:04:44;;;;;;;;;;;;;;;4.92;86.97;94182.50;5115005;28;976;-47
2022/01/09 05:07:10;;;;;;;;;;;;;;;4.91;87.00;94184.28;5114645;28;1187;-48
2022/01/09 05:09:36;;;;;;;;;;;;;;;4.97;86.79;94188.16;5114753;28;1918;-47
2022/01/09 05:12:02;;;;;;;;;;;;;;;5.02;86.59;94183.25;5114762;28;1087;-47
2022/01/09 05:14:28;;;;;;;;;;;;;;;4.98;86.78;94184.53;5114600;28;1071;-48
2022/01/09 05:16:54;;;;;;;;;;;;;;;4.93;86.81;94184.16;5114662;28;1056;-48
2022/01/09 05:19:27;;;;;;;;;;;;;;;5.03;86.41;94182.28;5114493;28;1025;-48
2022/01/09 05:21:54;;;;;;;;;;;;;;;5.01;86.65;94182.44;5114629;28;992;-48
2022/01/09 05:24:20;;;;;;;;;;;;;;;5.01;86.64;94184.25;5114569;28;969;-48
2022/01/09 05:26:46;;;;;;;;;;;;;;;4.98;86.34;94189.84;5114597;28;1051;-47
2022/01/09 05:29:12;;;;;;;;;;;;;;;4.86;86.62;94187.41;5114085;28;1906;-48
2022/01/09 05:31:39;;;;;;;;;;;;;;;4.74;87.21;94180.66;5114577;28;953;-48
2022/01/09 05:34:05;;;;;;;;;;;;;;;4.82;87.33;94182.56;5114533;28;965;-47
2022/01/09 05:36:31;;;;;;;;;;;;;;;4.88;86.86;94177.50;5114275;28;960;-48
2022/01/09 05:38:57;;;;;;;;;;;;;;;5.01;86.18;94176.31;5114337;28;995;-47
2022/01/09 05:41:23;;;;;;;;;;;;;;;5.00;86.01;94164.84;5114135;28;1076;-48
2022/01/09 05:43:49;;;;;;;;;;;;;;;4.98;86.23;94166.00;5114067;28;1049;-48
2022/01/09 05:46:16;;;;;;;;;;;;;;;5.00;86.16;94164.84;5114327;28;1063;-47
2022/01/09 05:48:42;;;;;;;;;;;;;;;4.95;86.30;94164.50;5114153;28;1108;-47
2022/01/09 05:51:08;;;;;;;;;;;;;;;4.91;87.03;94159.63;5113961;28;1910;-47
2022/01/09 05:53:34;;;;;;;;;;;;;;;4.94;87.03;94164.66;5114164;28;979;-47
2022/01/09 05:56:00;;;;;;;;;;;;;;;4.94;86.65;94159.34;5113741;28;1045;-47
2022/01/09 05:58:26;;;;;;;;;;;;;;;4.80;86.84;94148.28;5113237;28;1041;-47
2022/01/09 06:00:52;;;;;;;;;;;;;;;4.78;86.81;94144.97;5113839;28;1092;-48
2022/01/09 06:03:18;;;;;;;;;;;;;;;4.68;87.20;94152.13;5114142;28;1059;-47
2022/01/09 06:05:44;;;;;;;;;;;;;;;4.65;87.81;94149.78;5113871;28;1224;-47
2022/01/09 06:08:10;;;;;;;;;;;;;;;4.68;87.84;94147.66;5113666;28;1802;-48
2022/01/09 06:10:36;;;;;;;;;;;;;;;4.75;88.11;94150.56;5113679;28;1905;-48
2022/01/09 06:13:02;;;;;;;;;;;;;;;4.88;87.26;94153.66;5113679;28;2053;-48
2022/01/09 06:15:28;;;;;;;;;;;;;;;4.96;87.03;94158.19;5113662;28;2006;-47
2022/01/09 06:17:54;;;;;;;;;;;;;;;4.99;86.85;94157.06;5113883;28;1070;-47
2022/01/09 06:20:20;;;;;;;;;;;;;;;4.93;86.55;94155.03;5113594;28;1045;-47
2022/01/09 06:22:46;;;;;;;;;;;;;;;4.88;87.07;94147.53;5113733;28;1095;-47
2022/01/09 06:25:13;;;;;;;;;;;;;;;4.93;86.83;94150.53;5113543;28;1059;-47
2022/01/09 06:27:39;;;;;;;;;;;;;;;4.88;86.60;94156.31;5113578;28;1044;-47
2022/01/09 06:30:06;;;;;;;;;;;;;;;4.86;86.80;94163.56;5113591;28;1917;-47
2022/01/09 06:32:32;;;;;;;;;;;;;;;4.76;87.45;94160.19;5113648;28;1036;-47
2022/01/09 06:34:59;;;;;;;;;;;;;;;4.86;86.94;94158.28;5113677;28;1035;-48
2022/01/09 06:37:25;;;;;;;;;;;;;;;4.99;86.52;94157.06;5113572;28;1024;-48
2022/01/09 06:39:51;;;;;;;;;;;;;;;5.05;85.83;94164.41;5113499;28;1020;-46
2022/01/09 06:42:17;;;;;;;;;;;;;;;5.03;85.86;94163.75;5113239;28;1037;-47
2022/01/09 06:44:43;;;;;;;;;;;;;;;5.00;85.67;94158.72;5113762;28;1036;-47
2022/01/09 06:47:09;;;;;;;;;;;;;;;5.06;85.50;94158.13;5113460;28;1020;-47
2022/01/09 06:49:35;;;;;;;;;;;;;;;5.13;85.02;94156.53;5113382;28;1996;-47
2022/01/09 06:52:02;;;;;;;;;;;;;;;5.21;85.15;94166.38;5113216;28;1131;-47
2022/01/09 06:54:28;;;;;;;;;;;;;;;5.33;84.13;94169.59;5113542;28;1024;-47
2022/01/09 06:56:54;;;;;;;;;;;;;;;5.38;84.26;94172.66;5111984;28;1036;-47
2022/01/09 06:59:20;;;;;;;;;;;;;;;5.60;84.11;94177.47;5113417;28;1055;-47
2022/01/09 07:01:46;;;;;;;;;;;;;;;5.56;84.05;94178.75;5113432;28;1000;-47
2022/01/09 07:04:12;;;;;;;;;;;;;;;5.61;84.13;94181.75;5113376;28;980;-48
2022/01/09 07:06:38;;;;;;;;;;;;;;;5.68;84.32;94190.78;5113171;28;1157;-47
2022/01/09 07:09:05;;;;;;;;;;;;;;;5.71;84.57;94187.00;5114384;28;1211;-48
2022/01/09 07:11:31;;;;;;;;;;;;;;;5.87;84.13;94188.91;5116968;28;1967;-48
2022/01/09 07:13:57;;;;;;;;;;;;;;;5.95;83.86;94183.69;5117127;28;1029;-47
2022/01/09 07:16:23;;;;;;;;;;;;;;;5.99;83.58;94177.06;5116976;28;1041;-47
2022/01/09 07:18:49;;;;;;;;;;;;;;;6.04;83.23;94174.78;5117257;28;1074;-47
2022/01/09 07:21:15;;;;;;;;;;;;;;;6.08;83.12;94166.53;5116922;28;1111;-47
2022/01/09 07:23:41;;;;;;;;;;;;;;;7.83;77.63;94161.19;5117083;28;977;-48
2022/01/09 07:26:07;;;;;;;;;;;;;;;7.62;76.66;94157.22;5115533;28;1053;-48
2022/01/09 07:28:33;;;;;;;;;;;;;;;7.33;78.42;94151.59;5116785;28;1053;-47
2022/01/09 07:31:00;;;;;;;;;;;;;;;7.26;78.84;94164.72;5116906;28;1906;-47
2022/01/09 07:33:26;;;;;;;;;;;;;;;7.32;78.69;94163.22;5116783;28;989;-47
2022/01/09 07:35:52;;;;;;;;;;;;;;;7.32;77.98;94156.09;5116887;28;961;-47
2022/01/09 07:38:18;;;;;;;;;;;;;;;7.09;78.76;94150.56;5116669;28;972;-47
2022/01/09 07:40:44;;;;;;;;;;;;;;;6.95;80.50;94160.03;5116614;28;1064;-47
2022/01/09 07:43:10;;;;;;;;;;;;;;;6.72;81.22;94151.00;5116405;28;1056;-47
2022/01/09 07:45:36;;;;;;;;;;;;;;;6.49;82.40;94146.28;5116561;28;1095;-47
2022/01/09 07:48:02;;;;;;;;;;;;;;;6.18;83.50;94152.13;5116255;28;1104;-47
2022/01/09 07:50:28;;;;;;;;;;;;;;;5.97;84.68;94149.84;5116451;28;1905;-47
2022/01/09 07:52:55;;;;;;;;;;;;;;;6.04;84.02;94148.25;5116233;28;965;-48
2022/01/09 07:55:22;;;;;;;;;;;;;;;5.99;83.97;94144.41;5116356;27;1048;-48
2022/01/09 07:57:48;;;;;;;;;;;;;;;6.04;84.09;94142.94;5116286;28;1057;-48
2022/01/09 08:00:15;;;;;;;;;;;;;;;6.06;82.90;94140.13;5115058;28;981;-48
2022/01/09 08:02:42;;;;;;;;;;;;;;;6.22;82.70;94131.41;5116261;28;972;-47
2022/01/09 08:05:08;;;;;;;;;;;;;;;6.43;82.80;94134.50;5116171;28;969;-47
2022/01/09 08:07:34;;;;;;;;;;;;;;;6.50;82.14;94128.53;5115810;28;1217;-47
2022/01/09 08:10:00;;;;;;;;;;;;;;;6.52;82.20;94116.75;5115887;28;1910;-48
2022/01/09 08:12:26;;;;;;;;;;;;;;;6.55;81.66;94118.25;5115888;28;1108;-48
2022/01/09 08:14:52;;;;;;;;;;;;;;;6.71;81.34;94118.28;5114975;28;1149;-48
2022/01/09 08:17:18;;;;;;;;;;;;;;;6.76;80.90;94112.50;5115905;28;1060;-45
2022/01/09 08:19:44;;;;;;;;;;;;;;;6.66;80.60;94115.31;5116038;28;992;-47
2022/01/09 08:22:10;;;;;;;;;;;;;;;6.76;80.81;94112.50;5114811;28;1033;-47
2022/01/09 08:24:38;;;;;;;;;;;;;;;6.99;80.50;94118.00;5115761;27;925;-48
2022/01/09 08:27:05;;;;;;;;;;;;;;;6.98;80.63;94114.53;5115882;28;988;-46
2022/01/09 08:29:31;;;;;;;;;;;;;;;6.79;80.64;94115.66;5115294;28;1975;-48
2022/01/09 08:31:57;;;;;;;;;;;;;;;6.74;80.97;94114.50;5115797;28;957;-46
2022/01/09 08:34:23;;;;;;;;;;;;;;;6.72;80.48;94108.50;5115984;28;1055;-47
2022/01/09 08:36:49;;;;;;;;;;;;;;;6.73;81.14;94105.66;5115643;28;1055;-47
2022/01/09 08:39:17;;;;;;;;;;;;;;;6.67;81.32;94105.50;5115228;28;1242;-48
2022/01/09 08:41:43;;;;;;;;;;;;;;;6.74;81.47;94111.84;5115901;28;980;-48
2022/01/09 08:44:09;;;;;;;;;;;;;;;6.71;80.81;94115.63;5115406;28;1055;-48
2022/01/09 08:46:36;;;;;;;;;;;;;;;6.66;81.01;94107.34;5115541;28;1055;-48
2022/01/09 08:49:03;;;;;;;;;;;;;;;6.64;81.53;94112.81;5115235;28;1345;-48
2022/01/09 08:51:30;;;;;;;;;;;;;;;6.47;82.38;94100.50;5115408;28;2015;-48
2022/01/09 08:53:57;;;;;;;;;;;;;;;6.46;82.38;94109.44;5115014;28;1023;-47
2022/01/09 08:56:25;;;;;;;;;;;;;;;6.56;81.89;94103.97;5114020;28;1048;-46
2022/01/09 08:58:51;;;;;;;;;;;;;;;6.53;81.65;94101.66;5114932;28;1040;-48
2022/01/09 09:01:17;;;;;;;;;;;;;;;6.42;81.84;94102.78;5115283;28;1044;-48
2022/01/09 09:03:44;;;;;;;;;;;;;;;6.44;81.58;94096.31;5114955;28;1124;-47
2022/01/09 09:06:11;;;;;;;;;;;;;;;6.47;81.12;94089.88;5114861;28;1189;-47
2022/01/09 09:08:38;;;;;;;;;;;;;;;6.47;81.43;94087.22;5114556;28;1994;-47
2022/01/09 09:11:06;;;;;;;;;;;;;;;6.54;81.24;94082.06;5114976;28;1999;-47
2022/01/09 09:13:32;;;;;;;;;;;;;;;6.64;80.58;94078.28;5114868;28;1131;-47
2022/01/09 09:15:59;;;;;;;;;;;;;;;6.76;80.59;94067.34;5114854;28;1032;-48
2022/01/09 09:18:25;;;;;;;;;;;;;;;6.58;80.03;94065.66;5113458;28;1057;-48
2022/01/09 09:20:51;;;;;;;;;;;;;;;6.69;79.71;94059.19;5114572;28;1056;-48
2022/01/09 09:23:17;;;;;;;;;;;;;;;6.85;79.04;94050.41;5114374;28;996;-47
2022/01/09 09:25:43;;;;;;;;;;;;;;;7.12;78.64;94059.88;5114862;28;949;-48
2022/01/09 09:28:09;;;;;;;;;;;;;;;7.14;78.07;94046.44;5114259;28;916;-47
2022/01/09 09:30:35;;;;;;;;;;;;;;;7.17;78.91;94038.94;5114086;28;1906;-48
2022/01/09 09:33:03;;;;;;;;;;;;;;;7.55;78.00;94033.91;5114324;28;1207;-48
2022/01/09 09:35:29;;;;;;;;;;;;;;;7.74;76.92;94026.50;5114120;28;1327;-48
2022/01/09 09:37:55;;;;;;;;;;;;;;;7.76;77.05;94024.53;5114179;28;984;-48
2022/01/09 09:40:21;;;;;;;;;;;;;;;7.69;77.79;94020.91;5114359;28;961;-48
2022/01/09 09:42:47;;;;;;;;;;;;;;;7.54;77.61;94012.78;5114546;28;1045;-47
2022/01/09 09:45:14;;;;;;;;;;;;;;;7.46;77.86;94016.31;5114251;28;1044;-48
2022/01/09 09:47:40;;;;;;;;;;;;;;;7.37;78.13;94012.81;5114371;28;1163;-48
2022/01/09 09:50:09;;;;;;;;;;;;;;;7.29;78.27;94006.69;5114071;28;1988;-48
2022/01/09 09:52:35;;;;;;;;;;;;;;;7.00;78.29;94006.22;5114094;28;1033;-48
2022/01/09 09:55:02;;;;;;;;;;;;;;;7.00;78.75;94000.06;5113843;28;1045;-48
2022/01/09 09:57:28;;;;;;;;;;;;;;;7.21;78.88;93991.59;5114278;28;1180;-48
2022/01/09 09:59:58;;;;;;;;;;;;;;;7.50;76.95;93993.69;5112456;28;1980;-48
2022/01/09 10:02:24;;;;;;;;;;;;;;;7.74;76.51;93997.25;5114102;28;965;-48
2022/01/09 10:04:58;;;;;;;;;;;;;;;7.89;75.20;93995.56;5113651;28;1037;-48
2022/01/09 10:10:46;;;;;;;;;;;;;;;7.93;74.78;93986.22;5073142;28;1983;-48
2022/01/09 10:13:15;;;;;;;;;;;;;;;7.97;75.21;93978.72;5073168;28;1097;-48
2022/01/09 10:15:52;;;;;;;;;;;;;;;10.10;67.84;93984.03;5073070;28;1029;-48
2022/01/09 10:18:37;;;;;;;;;;;;;;;9.03;70.88;93974.53;5073418;28;1039;-48
2022/01/09 10:21:04;;;;;;;;;;;;;;;8.57;72.18;93972.72;5073113;28;950;-48
2022/01/09 10:23:30;;;;;;;;;;;;;;;8.46;72.77;93974.94;5073252;28;1031;-48
2022/01/09 10:26:08;;;;;;;;;;;;;;;8.21;73.75;93977.72;5073394;28;1033;-48
2022/01/09 10:28:38;;;;;;;;;;;;;;;8.94;72.10;93973.75;5072201;28;1067;-49
2022/01/09 10:31:13;;;;;;;;;;;;;;;11.35;65.24;93969.47;5072867;28;1914;-48
2022/01/09 10:33:39;;;;;;;;;;;;;;;14.01;56.08;93971.97;5073131;28;1882;-48
2022/01/09 10:36:06;;;;;;;;;;;;;;;15.55;50.88;93960.38;5072888;28;1056;-49
2022/01/09 10:38:32;;;;;;;;;;;;;;;15.08;51.22;93962.59;5073024;28;1047;-49
2022/01/09 10:41:01;;;;;;;;;;;;;;;18.25;44.12;93954.41;5072977;28;1036;-48
2022/01/09 10:43:30;;;;;;;;;;;;;;;20.80;39.10;93967.13;5073252;28;976;-49
2022/01/09 10:45:59;;;;;;;;;;;;;;;20.98;37.05;93962.44;5076842;28;1088;-48
2022/01/09 10:48:26;;;;;;;;;;;;;;;18.38;42.63;93961.44;5077112;28;1025;-49
2022/01/09 10:50:53;;;;;;;;;;;;;;;19.02;40.05;93942.41;5076745;28;1906;-48
2022/01/09 10:53:19;;;;;;;;;;;;;;;16.12;49.06;93941.38;5076835;28;1060;-48
2022/01/09 10:55:47;;;;;;;;;;;;;;;13.01;55.02;93933.66;5076740;28;1878;-48
2022/01/09 10:58:21;;;;;;;;;;;;;;;11.26;61.03;93923.28;5076827;28;1123;-49
2022/01/09 11:01:05;;;;;;;;;;;;;;;10.22;65.23;93917.59;5076538;28;1152;-49
2022/01/09 11:03:32;;;;;;;;;;;;;;;9.81;66.82;93923.47;5076813;28;984;-49
2022/01/09 11:05:59;;;;;;;;;;;;;;;9.27;68.66;93922.78;5076541;28;1170;-49
2022/01/09 11:08:26;;;;;;;;;;;;;;;9.04;71.21;93922.03;5077868;28;1091;-50
2022/01/09 11:10:53;;;;;;;;;;;;;;;8.97;71.29;93920.09;5116908;28;1999;-49
2022/01/09 11:13:19;;;;;;;;;;;;;;;9.08;71.35;93917.97;5117232;28;992;-49
2022/01/09 11:16:32;;;;;;;;;;;;;;;9.39;70.01;93904.50;5116965;28;969;-49
2022/01/09 11:18:34;;;;;;;;;;;;;;;9.48;69.85;93902.53;5116998;28;1379;-49
2022/01/09 11:21:00;;;;;;;;;;;;;;;9.31;70.80;93899.22;5116705;28;1060;-49
2022/01/09 11:23:33;;;;;;;;;;;;;;;9.09;71.57;93904.47;5117069;28;1034;-48
2022/01/09 11:26:01;;;;;;;;;;;;;;;9.14;71.93;93901.25;5116677;28;1065;-49
2022/01/09 11:28:32;;;;;;;;;;;;;;;9.33;71.28;93892.72;5116855;28;1012;-49
2022/01/09 11:31:10;;;;;;;;;;;;;;;8.93;71.45;93893.97;5116328;27;1976;-49
2022/01/09 11:33:48;;;;;;;;;;;;;;;8.93;72.30;93885.97;5116992;28;949;-48
2022/01/09 11:36:23;;;;;;;;;;;;;;;8.97;72.62;93881.91;5116647;28;1093;-49
2022/01/09 11:39:02;;;;;;;;;;;;;;;8.89;72.32;93869.50;5116662;28;1060;-48
2022/01/09 11:41:30;;;;;;;;;;;;;;;8.81;73.08;93874.94;5116758;28;969;-49
2022/01/09 11:44:01;;;;;;;;;;;;;;;9.13;73.03;93867.59;5116633;28;981;-49
2022/01/09 11:46:28;;;;;;;;;;;;;;;9.28;72.66;93864.94;5116460;28;969;-49
2022/01/09 11:48:54;;;;;;;;;;;;;;;9.18;72.50;93852.72;5115114;28;1405;-49
2022/01/09 11:51:21;;;;;;;;;;;;;;;9.22;71.98;93861.19;5116191;28;1909;-49
2022/01/09 11:53:59;;;;;;;;;;;;;;;9.12;72.89;93858.75;5116344;28;1052;-50
2022/01/09 11:56:44;;;;;;;;;;;;;;;9.11;73.07;93861.63;5115026;28;1025;-49
2022/01/09 11:59:19;;;;;;;;;;;;;;;9.16;71.72;93851.22;5116034;28;985;-50
2022/01/09 12:01:46;;;;;;;;;;;;;;;9.03;72.56;93854.56;5116035;28;1882;-50
2022/01/09 12:04:30;;;;;;;;;;;;;;;9.04;72.93;93852.72;5115992;28;941;-49
2022/01/09 12:06:57;;;;;;;;;;;;;;;9.07;73.36;93847.00;5116028;28;1832;-49
2022/01/09 12:09:30;;;;;;;;;;;;;;;9.33;72.28;93854.53;5115965;28;1993;-49
2022/01/09 12:12:02;;;;;;;;;;;;;;;9.43;72.25;93848.91;5115933;28;1027;-49
2022/01/09 12:15:05;;;;;;;;;;;;;;;9.44;72.38;93846.06;5115969;28;1024;-49
2022/01/09 12:17:36;;;;;;;;;;;;;;;9.53;71.68;93849.47;5116005;28;1044;-50
2022/01/09 12:20:05;;;;;;;;;;;;;;;9.88;70.78;93844.31;5116025;28;1008;-49
2022/01/09 12:22:41;;;;;;;;;;;;;;;9.95;69.47;93843.38;5115593;28;1132;-49
2022/01/09 12:25:07;;;;;;;;;;;;;;;10.21;69.36;93835.84;5115619;28;1000;-49
2022/01/09 12:27:40;;;;;;;;;;;;;;;10.28;69.63;93840.22;5115796;28;1000;-49
2022/01/09 12:30:07;;;;;;;;;;;;;;;10.28;68.80;93832.22;5115368;28;1905;-49
2022/01/09 12:32:38;;;;;;;;;;;;;;;10.40;68.52;93832.53;5115594;28;957;-48
2022/01/09 12:35:14;;;;;;;;;;;;;;;10.43;69.45;93834.00;5115641;28;1071;-49
2022/01/09 12:37:47;;;;;;;;;;;;;;;10.25;69.83;93834.44;5115213;28;1003;-49
2022/01/09 12:40:14;;;;;;;;;;;;;;;9.94;71.05;93825.72;5115437;28;1004;-49
2022/01/09 12:42:48;;;;;;;;;;;;;;;9.95;70.69;93827.34;5115344;28;1012;-49
2022/01/09 12:45:21;;;;;;;;;;;;;;;9.83;71.00;93826.19;5115274;28;913;-49
2022/01/09 12:47:47;;;;;;;;;;;;;;;9.69;71.69;93825.22;5115217;28;1074;-49
2022/01/09 12:50:13;;;;;;;;;;;;;;;9.68;72.60;93820.91;5115060;28;1993;-49
2022/01/09 12:52:39;;;;;;;;;;;;;;;9.71;72.35;93819.69;5114062;28;1054;-49
2022/01/09 12:55:06;;;;;;;;;;;;;;;9.88;72.18;93815.75;5115052;28;1103;-49
2022/01/09 12:57:49;;;;;;;;;;;;;;;9.96;71.33;93806.84;5114943;28;1049;-49
2022/01/09 13:00:15;;;;;;;;;;;;;;;10.05;71.58;93804.84;5113726;28;1044;-49
2022/01/09 13:02:50;;;;;;;;;;;;;;;9.88;71.70;93802.41;5114873;27;1051;-48
2022/01/09 13:05:20;;;;;;;;;;;;;;;9.91;71.78;93796.72;5114994;28;1056;-49
2022/01/09 13:07:46;;;;;;;;;;;;;;;9.81;72.53;93800.69;5114374;28;1205;-48
2022/01/09 13:10:15;;;;;;;;;;;;;;;9.94;71.77;93791.00;5114671;28;1910;-49
2022/01/09 13:13:00;;;;;;;;;;;;;;;9.74;71.80;93797.97;5114755;28;1044;-48
2022/01/09 13:15:32;;;;;;;;;;;;;;;9.74;71.84;93798.78;5115021;28;969;-49
2022/01/09 13:17:58;;;;;;;;;;;;;;;9.75;71.59;93789.78;5114661;28;1035;-49
2022/01/09 13:20:24;;;;;;;;;;;;;;;9.76;71.52;93790.59;5114689;28;1094;-49